sensor_id;sensor_type;location;lat;lon;timestamp;P1;durP1;ratioP1;P2;durP2;ratioP2
17648;SDS011;8943;51.110;-4.158;2023-11-22T00:00:39;6.70;;;2.30;;
17648;SDS011;8943;51.110;-4.158;2023-11-22T00:03:33;3.10;;;1.83;;
17648;SDS011;8943;51.110;-4.158;2023-11-22T00:06:20;4.27;;;2.50;;
17648;SDS011;8943;51.110;-4.158;2023-11-22T00:08:58;8.27;;;2.73;;
17648;SDS011;8943;51.110;-4.158;2023-11-22T00:11:44;6.50;;;2.53;;
17648;SDS011;8943;51.110;-4.158;2023-11-22T00:17:54;7.00;;;2.03;;
17648;SDS011;8943;51.110;-4.158;2023-11-22T00:20:41;4.17;;;2.63;;
17648;SDS011;8943;51.110;-4.158;2023-11-22T00:23:40;5.03;;;2.50;;
17648;SDS011;8943;51.110;-4.158;2023-11-22T00:26:13;5.07;;;2.10;;
17648;SDS011;8943;51.110;-4.158;2023-11-22T00:29:26;3.90;;;2.20;;
17648;SDS011;8943;51.110;-4.158;2023-11-22T00:32:21;4.90;;;2.63;;
17648;SDS011;8943;51.110;-4.158;2023-11-22T00:35:25;5.00;;;1.90;;
17648;SDS011;8943;51.110;-4.158;2023-11-22T00:38:21;3.00;;;1.97;;
17648;SDS011;8943;51.110;-4.158;2023-11-22T00:41:11;5.77;;;2.07;;
17648;SDS011;8943;51.110;-4.158;2023-11-22T00:43:54;4.77;;;2.00;;
17648;SDS011;8943;51.110;-4.158;2023-11-22T00:46:39;6.80;;;2.80;;
17648;SDS011;8943;51.110;-4.158;2023-11-22T00:49:54;5.30;;;2.23;;
17648;SDS011;8943;51.110;-4.158;2023-11-22T00:55:57;6.67;;;2.70;;
17648;SDS011;8943;51.110;-4.158;2023-11-22T00:58:49;6.40;;;3.00;;
17648;SDS011;8943;51.110;-4.158;2023-11-22T01:01:19;8.10;;;3.40;;
17648;SDS011;8943;51.110;-4.158;2023-11-22T01:04:06;4.80;;;2.90;;
17648;SDS011;8943;51.110;-4.158;2023-11-22T01:06:36;5.30;;;3.03;;
17648;SDS011;8943;51.110;-4.158;2023-11-22T01:12:23;16.03;;;4.23;;
17648;SDS011;8943;51.110;-4.158;2023-11-22T01:14:55;6.47;;;3.70;;
17648;SDS011;8943;51.110;-4.158;2023-11-22T01:17:27;4.90;;;3.00;;
17648;SDS011;8943;51.110;-4.158;2023-11-22T01:20:03;9.67;;;4.70;;
17648;SDS011;8943;51.110;-4.158;2023-11-22T01:22:38;16.43;;;4.90;;
17648;SDS011;8943;51.110;-4.158;2023-11-22T01:25:09;15.07;;;5.00;;
17648;SDS011;8943;51.110;-4.158;2023-11-22T01:27:40;16.77;;;4.40;;
17648;SDS011;8943;51.110;-4.158;2023-11-22T01:30:11;26.47;;;4.40;;
17648;SDS011;8943;51.110;-4.158;2023-11-22T01:32:45;6.87;;;2.87;;
17648;SDS011;8943;51.110;-4.158;2023-11-22T01:35:27;4.97;;;2.60;;
17648;SDS011;8943;51.110;-4.158;2023-11-22T01:37:59;6.67;;;2.73;;
17648;SDS011;8943;51.110;-4.158;2023-11-22T01:40:42;3.97;;;2.90;;
17648;SDS011;8943;51.110;-4.158;2023-11-22T01:43:13;5.43;;;2.63;;
17648;SDS011;8943;51.110;-4.158;2023-11-22T01:45:47;6.03;;;2.70;;
17648;SDS011;8943;51.110;-4.158;2023-11-22T01:48:23;11.30;;;3.40;;
17648;SDS011;8943;51.110;-4.158;2023-11-22T01:51:00;3.37;;;2.20;;
17648;SDS011;8943;51.110;-4.158;2023-11-22T01:53:36;4.50;;;2.77;;
17648;SDS011;8943;51.110;-4.158;2023-11-22T01:56:13;3.00;;;1.73;;
17648;SDS011;8943;51.110;-4.158;2023-11-22T01:58:49;3.43;;;2.00;;
17648;SDS011;8943;51.110;-4.158;2023-11-22T02:01:21;2.17;;;1.50;;
17648;SDS011;8943;51.110;-4.158;2023-11-22T02:03:53;3.10;;;1.50;;
17648;SDS011;8943;51.110;-4.158;2023-11-22T02:17:48;5.10;;;1.80;;
17648;SDS011;8943;51.110;-4.158;2023-11-22T02:21:31;3.50;;;1.73;;
17648;SDS011;8943;51.110;-4.158;2023-11-22T02:27:02;2.10;;;1.53;;
17648;SDS011;8943;51.110;-4.158;2023-11-22T02:29:38;5.03;;;1.70;;
17648;SDS011;8943;51.110;-4.158;2023-11-22T02:32:11;2.57;;;1.60;;
17648;SDS011;8943;51.110;-4.158;2023-11-22T02:34:41;2.40;;;1.40;;
17648;SDS011;8943;51.110;-4.158;2023-11-22T02:37:32;2.80;;;1.30;;
17648;SDS011;8943;51.110;-4.158;2023-11-22T02:43:18;3.13;;;1.60;;
17648;SDS011;8943;51.110;-4.158;2023-11-22T02:46:06;3.17;;;1.67;;
17648;SDS011;8943;51.110;-4.158;2023-11-22T02:48:45;2.60;;;1.47;;
17648;SDS011;8943;51.110;-4.158;2023-11-22T02:51:15;2.83;;;1.57;;
17648;SDS011;8943;51.110;-4.158;2023-11-22T02:54:17;2.90;;;1.70;;
17648;SDS011;8943;51.110;-4.158;2023-11-22T02:57:24;4.43;;;1.70;;
17648;SDS011;8943;51.110;-4.158;2023-11-22T03:00:08;3.60;;;1.83;;
17648;SDS011;8943;51.110;-4.158;2023-11-22T03:03:13;5.33;;;1.77;;
17648;SDS011;8943;51.110;-4.158;2023-11-22T03:05:47;3.47;;;1.70;;
17648;SDS011;8943;51.110;-4.158;2023-11-22T03:08:32;1.57;;;1.27;;
17648;SDS011;8943;51.110;-4.158;2023-11-22T03:11:07;3.07;;;1.43;;
17648;SDS011;8943;51.110;-4.158;2023-11-22T03:17:05;2.00;;;1.37;;
17648;SDS011;8943;51.110;-4.158;2023-11-22T03:20:06;2.90;;;1.90;;
17648;SDS011;8943;51.110;-4.158;2023-11-22T03:22:46;5.00;;;1.63;;
17648;SDS011;8943;51.110;-4.158;2023-11-22T03:25:42;2.83;;;2.00;;
17648;SDS011;8943;51.110;-4.158;2023-11-22T03:28:34;4.17;;;2.50;;
17648;SDS011;8943;51.110;-4.158;2023-11-22T03:31:26;4.60;;;1.80;;
17648;SDS011;8943;51.110;-4.158;2023-11-22T03:34:12;2.97;;;1.40;;
17648;SDS011;8943;51.110;-4.158;2023-11-22T03:36:48;5.00;;;1.60;;
17648;SDS011;8943;51.110;-4.158;2023-11-22T03:39:23;3.90;;;1.43;;
17648;SDS011;8943;51.110;-4.158;2023-11-22T03:42:20;4.57;;;1.93;;
17648;SDS011;8943;51.110;-4.158;2023-11-22T03:45:20;4.33;;;1.73;;
17648;SDS011;8943;51.110;-4.158;2023-11-22T03:48:14;3.17;;;1.60;;
17648;SDS011;8943;51.110;-4.158;2023-11-22T03:51:03;3.97;;;1.50;;
17648;SDS011;8943;51.110;-4.158;2023-11-22T03:53:46;2.47;;;1.30;;
17648;SDS011;8943;51.110;-4.158;2023-11-22T03:56:40;3.27;;;1.30;;
17648;SDS011;8943;51.110;-4.158;2023-11-22T03:59:11;1.90;;;1.40;;
17648;SDS011;8943;51.110;-4.158;2023-11-22T04:01:51;2.77;;;1.30;;
17648;SDS011;8943;51.110;-4.158;2023-11-22T04:04:29;1.73;;;1.30;;
17648;SDS011;8943;51.110;-4.158;2023-11-22T04:07:05;1.77;;;1.20;;
17648;SDS011;8943;51.110;-4.158;2023-11-22T04:09:48;2.57;;;1.30;;
17648;SDS011;8943;51.110;-4.158;2023-11-22T04:12:42;1.20;;;1.10;;
17648;SDS011;8943;51.110;-4.158;2023-11-22T04:19:06;3.27;;;1.20;;
17648;SDS011;8943;51.110;-4.158;2023-11-22T04:21:39;3.10;;;1.30;;
17648;SDS011;8943;51.110;-4.158;2023-11-22T04:24:12;2.07;;;1.07;;
17648;SDS011;8943;51.110;-4.158;2023-11-22T04:26:47;1.43;;;1.00;;
17648;SDS011;8943;51.110;-4.158;2023-11-22T04:29:32;1.17;;;0.90;;
17648;SDS011;8943;51.110;-4.158;2023-11-22T04:32:05;2.10;;;1.10;;
17648;SDS011;8943;51.110;-4.158;2023-11-22T04:34:37;2.50;;;1.30;;
17648;SDS011;8943;51.110;-4.158;2023-11-22T04:37:08;3.40;;;1.30;;
17648;SDS011;8943;51.110;-4.158;2023-11-22T04:39:39;2.10;;;1.20;;
17648;SDS011;8943;51.110;-4.158;2023-11-22T04:42:09;2.13;;;1.00;;
17648;SDS011;8943;51.110;-4.158;2023-11-22T04:44:38;2.57;;;1.30;;
17648;SDS011;8943;51.110;-4.158;2023-11-22T04:47:11;3.33;;;1.37;;
17648;SDS011;8943;51.110;-4.158;2023-11-22T04:49:50;4.20;;;1.60;;
17648;SDS011;8943;51.110;-4.158;2023-11-22T04:52:23;2.13;;;1.27;;
17648;SDS011;8943;51.110;-4.158;2023-11-22T04:54:58;2.27;;;1.50;;
17648;SDS011;8943;51.110;-4.158;2023-11-22T04:57:30;4.10;;;1.50;;
17648;SDS011;8943;51.110;-4.158;2023-11-22T05:00:06;3.23;;;1.03;;
17648;SDS011;8943;51.110;-4.158;2023-11-22T05:02:43;2.53;;;1.57;;
17648;SDS011;8943;51.110;-4.158;2023-11-22T05:05:20;2.10;;;1.30;;
17648;SDS011;8943;51.110;-4.158;2023-11-22T05:07:58;3.10;;;1.53;;
17648;SDS011;8943;51.110;-4.158;2023-11-22T05:10:27;2.40;;;1.37;;
17648;SDS011;8943;51.110;-4.158;2023-11-22T05:12:57;2.43;;;1.30;;
17648;SDS011;8943;51.110;-4.158;2023-11-22T05:15:32;5.53;;;1.90;;
17648;SDS011;8943;51.110;-4.158;2023-11-22T05:18:04;3.37;;;1.50;;
17648;SDS011;8943;51.110;-4.158;2023-11-22T05:20:34;7.97;;;1.60;;
17648;SDS011;8943;51.110;-4.158;2023-11-22T05:23:08;2.13;;;1.10;;
17648;SDS011;8943;51.110;-4.158;2023-11-22T05:25:40;1.53;;;1.20;;
17648;SDS011;8943;51.110;-4.158;2023-11-22T05:28:09;5.30;;;1.30;;
17648;SDS011;8943;51.110;-4.158;2023-11-22T05:30:40;2.90;;;1.37;;
17648;SDS011;8943;51.110;-4.158;2023-11-22T05:33:09;1.80;;;1.40;;
17648;SDS011;8943;51.110;-4.158;2023-11-22T05:35:39;2.07;;;1.00;;
17648;SDS011;8943;51.110;-4.158;2023-11-22T05:38:13;4.63;;;1.20;;
17648;SDS011;8943;51.110;-4.158;2023-11-22T05:40:44;1.37;;;1.07;;
17648;SDS011;8943;51.110;-4.158;2023-11-22T05:43:14;2.53;;;1.10;;
17648;SDS011;8943;51.110;-4.158;2023-11-22T05:45:52;4.47;;;1.20;;
17648;SDS011;8943;51.110;-4.158;2023-11-22T05:48:28;2.30;;;0.90;;
17648;SDS011;8943;51.110;-4.158;2023-11-22T05:51:01;2.43;;;1.37;;
17648;SDS011;8943;51.110;-4.158;2023-11-22T05:53:41;1.20;;;1.10;;
17648;SDS011;8943;51.110;-4.158;2023-11-22T05:56:13;3.67;;;1.70;;
17648;SDS011;8943;51.110;-4.158;2023-11-22T05:58:51;2.83;;;1.13;;
17648;SDS011;8943;51.110;-4.158;2023-11-22T06:01:29;5.40;;;1.70;;
17648;SDS011;8943;51.110;-4.158;2023-11-22T06:04:01;4.20;;;2.23;;
17648;SDS011;8943;51.110;-4.158;2023-11-22T06:06:35;3.03;;;1.30;;
17648;SDS011;8943;51.110;-4.158;2023-11-22T06:09:08;2.60;;;1.43;;
17648;SDS011;8943;51.110;-4.158;2023-11-22T06:11:41;5.80;;;2.00;;
17648;SDS011;8943;51.110;-4.158;2023-11-22T06:14:10;3.00;;;1.30;;
17648;SDS011;8943;51.110;-4.158;2023-11-22T06:16:54;3.03;;;1.27;;
17648;SDS011;8943;51.110;-4.158;2023-11-22T06:19:42;1.47;;;1.13;;
17648;SDS011;8943;51.110;-4.158;2023-11-22T06:22:21;2.67;;;1.27;;
17648;SDS011;8943;51.110;-4.158;2023-11-22T06:27:58;4.83;;;2.30;;
17648;SDS011;8943;51.110;-4.158;2023-11-22T06:30:37;3.83;;;2.60;;
17648;SDS011;8943;51.110;-4.158;2023-11-22T06:33:34;3.03;;;1.40;;
17648;SDS011;8943;51.110;-4.158;2023-11-22T06:36:21;4.97;;;2.97;;
17648;SDS011;8943;51.110;-4.158;2023-11-22T06:39:10;7.83;;;3.00;;
17648;SDS011;8943;51.110;-4.158;2023-11-22T06:42:36;4.03;;;2.30;;
17648;SDS011;8943;51.110;-4.158;2023-11-22T06:45:24;3.53;;;2.53;;
17648;SDS011;8943;51.110;-4.158;2023-11-22T06:48:44;7.83;;;3.47;;
17648;SDS011;8943;51.110;-4.158;2023-11-22T06:51:45;4.13;;;1.80;;
17648;SDS011;8943;51.110;-4.158;2023-11-22T06:54:42;2.57;;;1.93;;
17648;SDS011;8943;51.110;-4.158;2023-11-22T06:57:30;7.63;;;2.23;;
17648;SDS011;8943;51.110;-4.158;2023-11-22T07:00:10;4.33;;;1.90;;
17648;SDS011;8943;51.110;-4.158;2023-11-22T07:02:47;5.77;;;2.20;;
17648;SDS011;8943;51.110;-4.158;2023-11-22T07:05:24;4.63;;;2.30;;
17648;SDS011;8943;51.110;-4.158;2023-11-22T07:08:03;4.10;;;2.60;;
17648;SDS011;8943;51.110;-4.158;2023-11-22T07:10:37;4.20;;;2.47;;
17648;SDS011;8943;51.110;-4.158;2023-11-22T07:13:36;3.63;;;2.40;;
17648;SDS011;8943;51.110;-4.158;2023-11-22T07:16:10;4.00;;;2.03;;
17648;SDS011;8943;51.110;-4.158;2023-11-22T07:18:42;4.40;;;2.20;;
17648;SDS011;8943;51.110;-4.158;2023-11-22T07:21:14;4.17;;;2.30;;
17648;SDS011;8943;51.110;-4.158;2023-11-22T07:23:49;5.57;;;2.40;;
17648;SDS011;8943;51.110;-4.158;2023-11-22T07:26:23;5.30;;;2.43;;
17648;SDS011;8943;51.110;-4.158;2023-11-22T07:29:04;5.93;;;2.60;;
17648;SDS011;8943;51.110;-4.158;2023-11-22T07:31:49;5.60;;;2.00;;
17648;SDS011;8943;51.110;-4.158;2023-11-22T07:34:35;5.50;;;2.00;;
17648;SDS011;8943;51.110;-4.158;2023-11-22T07:37:20;3.43;;;1.80;;
17648;SDS011;8943;51.110;-4.158;2023-11-22T07:39:51;5.30;;;2.40;;
17648;SDS011;8943;51.110;-4.158;2023-11-22T07:42:36;7.73;;;2.30;;
17648;SDS011;8943;51.110;-4.158;2023-11-22T07:48:22;4.10;;;2.43;;
17648;SDS011;8943;51.110;-4.158;2023-11-22T07:51:21;2.63;;;1.57;;
17648;SDS011;8943;51.110;-4.158;2023-11-22T07:54:34;7.23;;;2.23;;
17648;SDS011;8943;51.110;-4.158;2023-11-22T07:57:28;3.57;;;2.40;;
17648;SDS011;8943;51.110;-4.158;2023-11-22T08:00:22;3.63;;;2.40;;
17648;SDS011;8943;51.110;-4.158;2023-11-22T08:09:55;9.47;;;2.50;;
17648;SDS011;8943;51.110;-4.158;2023-11-22T08:13:03;4.03;;;2.40;;
17648;SDS011;8943;51.110;-4.158;2023-11-22T08:15:50;4.87;;;2.03;;
17648;SDS011;8943;51.110;-4.158;2023-11-22T08:18:48;4.70;;;1.70;;
17648;SDS011;8943;51.110;-4.158;2023-11-22T08:21:27;3.73;;;2.00;;
17648;SDS011;8943;51.110;-4.158;2023-11-22T08:27:18;6.90;;;2.40;;
17648;SDS011;8943;51.110;-4.158;2023-11-22T08:29:52;4.70;;;1.70;;
17648;SDS011;8943;51.110;-4.158;2023-11-22T08:33:05;7.73;;;2.40;;
17648;SDS011;8943;51.110;-4.158;2023-11-22T08:35:50;4.93;;;1.70;;
17648;SDS011;8943;51.110;-4.158;2023-11-22T08:38:56;6.30;;;2.40;;
17648;SDS011;8943;51.110;-4.158;2023-11-22T08:42:08;6.20;;;2.70;;
17648;SDS011;8943;51.110;-4.158;2023-11-22T08:45:04;3.97;;;2.33;;
17648;SDS011;8943;51.110;-4.158;2023-11-22T08:51:13;3.70;;;2.00;;
17648;SDS011;8943;51.110;-4.158;2023-11-22T08:53:58;4.97;;;2.50;;
17648;SDS011;8943;51.110;-4.158;2023-11-22T08:56:39;5.13;;;2.73;;
17648;SDS011;8943;51.110;-4.158;2023-11-22T09:03:43;5.53;;;2.17;;
17648;SDS011;8943;51.110;-4.158;2023-11-22T09:06:14;6.43;;;2.27;;
17648;SDS011;8943;51.110;-4.158;2023-11-22T09:08:48;6.27;;;1.90;;
17648;SDS011;8943;51.110;-4.158;2023-11-22T09:11:19;2.63;;;1.70;;
17648;SDS011;8943;51.110;-4.158;2023-11-22T09:13:53;7.10;;;2.10;;
17648;SDS011;8943;51.110;-4.158;2023-11-22T09:16:35;7.50;;;1.80;;
17648;SDS011;8943;51.110;-4.158;2023-11-22T09:19:22;3.63;;;1.43;;
17648;SDS011;8943;51.110;-4.158;2023-11-22T09:21:59;8.83;;;1.87;;
17648;SDS011;8943;51.110;-4.158;2023-11-22T09:24:37;6.17;;;2.30;;
17648;SDS011;8943;51.110;-4.158;2023-11-22T09:29:53;6.53;;;2.27;;
17648;SDS011;8943;51.110;-4.158;2023-11-22T09:32:26;5.67;;;1.90;;
17648;SDS011;8943;51.110;-4.158;2023-11-22T09:35:11;4.37;;;1.47;;
17648;SDS011;8943;51.110;-4.158;2023-11-22T09:37:42;7.53;;;1.70;;
17648;SDS011;8943;51.110;-4.158;2023-11-22T09:40:17;4.17;;;1.47;;
17648;SDS011;8943;51.110;-4.158;2023-11-22T09:43:00;3.77;;;2.00;;
17648;SDS011;8943;51.110;-4.158;2023-11-22T09:46:03;8.73;;;2.20;;
17648;SDS011;8943;51.110;-4.158;2023-11-22T09:49:22;3.90;;;1.10;;
17648;SDS011;8943;51.110;-4.158;2023-11-22T09:52:03;4.43;;;1.20;;
17648;SDS011;8943;51.110;-4.158;2023-11-22T09:54:46;4.37;;;0.50;;
17648;SDS011;8943;51.110;-4.158;2023-11-22T09:57:25;3.07;;;0.80;;
17648;SDS011;8943;51.110;-4.158;2023-11-22T10:00:23;1.03;;;0.50;;
17648;SDS011;8943;51.110;-4.158;2023-11-22T10:03:16;3.93;;;0.73;;
17648;SDS011;8943;51.110;-4.158;2023-11-22T10:06:04;4.30;;;0.80;;
17648;SDS011;8943;51.110;-4.158;2023-11-22T10:08:34;5.83;;;1.50;;
17648;SDS011;8943;51.110;-4.158;2023-11-22T10:11:18;4.20;;;0.77;;
17648;SDS011;8943;51.110;-4.158;2023-11-22T10:13:59;1.63;;;0.60;;
17648;SDS011;8943;51.110;-4.158;2023-11-22T10:16:40;5.63;;;0.30;;
17648;SDS011;8943;51.110;-4.158;2023-11-22T10:19:15;5.10;;;0.90;;
17648;SDS011;8943;51.110;-4.158;2023-11-22T10:24:58;1.90;;;0.50;;
17648;SDS011;8943;51.110;-4.158;2023-11-22T10:27:40;4.10;;;0.60;;
17648;SDS011;8943;51.110;-4.158;2023-11-22T10:30:20;2.03;;;0.50;;
17648;SDS011;8943;51.110;-4.158;2023-11-22T10:36:42;5.13;;;0.67;;
17648;SDS011;8943;51.110;-4.158;2023-11-22T10:57:47;6.27;;;1.50;;
17648;SDS011;8943;51.110;-4.158;2023-11-22T11:00:22;0.93;;;0.53;;
17648;SDS011;8943;51.110;-4.158;2023-11-22T11:03:03;3.00;;;0.47;;
17648;SDS011;8943;51.110;-4.158;2023-11-22T11:05:38;6.43;;;0.90;;
17648;SDS011;8943;51.110;-4.158;2023-11-22T11:08:34;3.73;;;0.77;;
17648;SDS011;8943;51.110;-4.158;2023-11-22T11:11:42;2.20;;;0.60;;
17648;SDS011;8943;51.110;-4.158;2023-11-22T11:14:11;4.20;;;0.73;;
17648;SDS011;8943;51.110;-4.158;2023-11-22T11:16:42;5.50;;;0.90;;
17648;SDS011;8943;51.110;-4.158;2023-11-22T11:19:16;4.33;;;1.00;;
17648;SDS011;8943;51.110;-4.158;2023-11-22T11:21:47;2.43;;;0.60;;
17648;SDS011;8943;51.110;-4.158;2023-11-22T11:24:20;1.70;;;0.47;;
17648;SDS011;8943;51.110;-4.158;2023-11-22T11:26:52;5.93;;;0.83;;
17648;SDS011;8943;51.110;-4.158;2023-11-22T11:29:29;0.53;;;0.33;;
17648;SDS011;8943;51.110;-4.158;2023-11-22T11:32:13;3.40;;;0.73;;
17648;SDS011;8943;51.110;-4.158;2023-11-22T11:34:58;3.30;;;0.57;;
17648;SDS011;8943;51.110;-4.158;2023-11-22T11:37:59;4.80;;;0.47;;
17648;SDS011;8943;51.110;-4.158;2023-11-22T11:44:20;2.07;;;0.40;;
17648;SDS011;8943;51.110;-4.158;2023-11-22T11:46:51;2.37;;;0.57;;
17648;SDS011;8943;51.110;-4.158;2023-11-22T11:52:12;4.37;;;0.90;;
17648;SDS011;8943;51.110;-4.158;2023-11-22T11:55:09;6.10;;;0.43;;
17648;SDS011;8943;51.110;-4.158;2023-11-22T11:57:47;1.77;;;0.50;;
17648;SDS011;8943;51.110;-4.158;2023-11-22T12:00:21;2.73;;;0.40;;
17648;SDS011;8943;51.110;-4.158;2023-11-22T12:02:50;1.23;;;0.40;;
17648;SDS011;8943;51.110;-4.158;2023-11-22T12:05:25;2.53;;;0.33;;
17648;SDS011;8943;51.110;-4.158;2023-11-22T12:07:56;2.67;;;0.60;;
17648;SDS011;8943;51.110;-4.158;2023-11-22T12:10:25;3.47;;;0.90;;
17648;SDS011;8943;51.110;-4.158;2023-11-22T12:15:56;4.83;;;0.70;;
17648;SDS011;8943;51.110;-4.158;2023-11-22T12:18:48;0.67;;;0.23;;
17648;SDS011;8943;51.110;-4.158;2023-11-22T12:21:41;2.53;;;0.50;;
17648;SDS011;8943;51.110;-4.158;2023-11-22T12:24:16;4.23;;;0.60;;
17648;SDS011;8943;51.110;-4.158;2023-11-22T12:27:05;3.93;;;0.70;;
17648;SDS011;8943;51.110;-4.158;2023-11-22T12:40:32;6.43;;;0.77;;
17648;SDS011;8943;51.110;-4.158;2023-11-22T12:43:38;1.90;;;0.73;;
17648;SDS011;8943;51.110;-4.158;2023-11-22T12:46:16;2.70;;;0.30;;
17648;SDS011;8943;51.110;-4.158;2023-11-22T12:48:47;1.33;;;0.43;;
17648;SDS011;8943;51.110;-4.158;2023-11-22T12:51:17;2.90;;;0.47;;
17648;SDS011;8943;51.110;-4.158;2023-11-22T12:53:58;2.93;;;0.50;;
17648;SDS011;8943;51.110;-4.158;2023-11-22T12:56:34;3.40;;;0.80;;
17648;SDS011;8943;51.110;-4.158;2023-11-22T12:59:07;4.83;;;0.40;;
17648;SDS011;8943;51.110;-4.158;2023-11-22T13:01:36;2.57;;;0.50;;
17648;SDS011;8943;51.110;-4.158;2023-11-22T13:04:09;1.90;;;0.40;;
17648;SDS011;8943;51.110;-4.158;2023-11-22T13:06:55;4.43;;;0.53;;
17648;SDS011;8943;51.110;-4.158;2023-11-22T13:09:28;3.20;;;0.70;;
17648;SDS011;8943;51.110;-4.158;2023-11-22T13:12:01;3.07;;;0.63;;
17648;SDS011;8943;51.110;-4.158;2023-11-22T13:14:30;7.87;;;1.07;;
17648;SDS011;8943;51.110;-4.158;2023-11-22T13:17:06;0.53;;;0.10;;
17648;SDS011;8943;51.110;-4.158;2023-11-22T13:19:41;1.77;;;0.30;;
17648;SDS011;8943;51.110;-4.158;2023-11-22T13:22:10;0.83;;;0.40;;
17648;SDS011;8943;51.110;-4.158;2023-11-22T13:24:42;2.63;;;0.40;;
17648;SDS011;8943;51.110;-4.158;2023-11-22T13:27:17;3.07;;;0.53;;
17648;SDS011;8943;51.110;-4.158;2023-11-22T13:29:56;3.07;;;0.50;;
17648;SDS011;8943;51.110;-4.158;2023-11-22T13:32:25;2.47;;;0.40;;
17648;SDS011;8943;51.110;-4.158;2023-11-22T13:35:00;3.13;;;0.63;;
17648;SDS011;8943;51.110;-4.158;2023-11-22T13:37:32;3.87;;;0.90;;
17648;SDS011;8943;51.110;-4.158;2023-11-22T13:40:05;2.07;;;0.60;;
17648;SDS011;8943;51.110;-4.158;2023-11-22T13:42:44;2.87;;;0.60;;
17648;SDS011;8943;51.110;-4.158;2023-11-22T13:45:21;4.80;;;0.90;;
17648;SDS011;8943;51.110;-4.158;2023-11-22T13:47:50;1.93;;;0.63;;
17648;SDS011;8943;51.110;-4.158;2023-11-22T13:50:24;6.77;;;1.17;;
17648;SDS011;8943;51.110;-4.158;2023-11-22T13:52:54;3.73;;;0.80;;
17648;SDS011;8943;51.110;-4.158;2023-11-22T13:55:23;3.50;;;0.63;;
17648;SDS011;8943;51.110;-4.158;2023-11-22T13:57:54;1.27;;;0.23;;
17648;SDS011;8943;51.110;-4.158;2023-11-22T14:00:24;4.10;;;1.17;;
17648;SDS011;8943;51.110;-4.158;2023-11-22T14:02:56;3.03;;;0.70;;
17648;SDS011;8943;51.110;-4.158;2023-11-22T14:05:31;3.17;;;0.90;;
17648;SDS011;8943;51.110;-4.158;2023-11-22T14:08:01;9.03;;;0.83;;
17648;SDS011;8943;51.110;-4.158;2023-11-22T14:10:33;3.00;;;0.53;;
17648;SDS011;8943;51.110;-4.158;2023-11-22T14:15:48;5.87;;;1.10;;
17648;SDS011;8943;51.110;-4.158;2023-11-22T14:18:18;0.70;;;0.30;;
17648;SDS011;8943;51.110;-4.158;2023-11-22T14:20:51;3.03;;;0.53;;
17648;SDS011;8943;51.110;-4.158;2023-11-22T14:23:20;1.67;;;0.50;;
17648;SDS011;8943;51.110;-4.158;2023-11-22T14:25:49;1.37;;;0.40;;
17648;SDS011;8943;51.110;-4.158;2023-11-22T14:28:19;1.93;;;0.60;;
17648;SDS011;8943;51.110;-4.158;2023-11-22T14:30:55;3.03;;;0.50;;
17648;SDS011;8943;51.110;-4.158;2023-11-22T14:33:26;2.10;;;0.47;;
17648;SDS011;8943;51.110;-4.158;2023-11-22T14:35:59;5.37;;;0.93;;
17648;SDS011;8943;51.110;-4.158;2023-11-22T14:38:27;3.87;;;0.60;;
17648;SDS011;8943;51.110;-4.158;2023-11-22T14:41:00;2.73;;;0.70;;
17648;SDS011;8943;51.110;-4.158;2023-11-22T14:46:45;6.20;;;0.87;;
17648;SDS011;8943;51.110;-4.158;2023-11-22T14:49:15;2.97;;;0.60;;
17648;SDS011;8943;51.110;-4.158;2023-11-22T14:51:43;6.17;;;1.00;;
17648;SDS011;8943;51.110;-4.158;2023-11-22T14:54:12;4.47;;;0.83;;
17648;SDS011;8943;51.110;-4.158;2023-11-22T14:56:46;5.90;;;1.20;;
17648;SDS011;8943;51.110;-4.158;2023-11-22T14:59:36;3.27;;;0.70;;
17648;SDS011;8943;51.110;-4.158;2023-11-22T15:02:11;4.00;;;1.07;;
17648;SDS011;8943;51.110;-4.158;2023-11-22T15:04:46;2.33;;;0.90;;
17648;SDS011;8943;51.110;-4.158;2023-11-22T15:07:17;4.87;;;0.90;;
17648;SDS011;8943;51.110;-4.158;2023-11-22T15:09:46;2.90;;;0.77;;
17648;SDS011;8943;51.110;-4.158;2023-11-22T15:12:14;5.87;;;1.30;;
17648;SDS011;8943;51.110;-4.158;2023-11-22T15:14:47;6.03;;;1.00;;
17648;SDS011;8943;51.110;-4.158;2023-11-22T15:17:16;3.20;;;0.57;;
17648;SDS011;8943;51.110;-4.158;2023-11-22T15:19:44;3.03;;;0.90;;
17648;SDS011;8943;51.110;-4.158;2023-11-22T15:22:13;2.47;;;0.70;;
17648;SDS011;8943;51.110;-4.158;2023-11-22T15:24:42;1.20;;;0.80;;
17648;SDS011;8943;51.110;-4.158;2023-11-22T15:30:11;175.27;;;11.40;;
17648;SDS011;8943;51.110;-4.158;2023-11-22T15:32:46;6.27;;;1.67;;
17648;SDS011;8943;51.110;-4.158;2023-11-22T15:35:15;14.60;;;2.17;;
17648;SDS011;8943;51.110;-4.158;2023-11-22T15:37:47;9.40;;;3.37;;
17648;SDS011;8943;51.110;-4.158;2023-11-22T15:40:16;10.73;;;1.33;;
17648;SDS011;8943;51.110;-4.158;2023-11-22T15:42:47;11.30;;;2.77;;
17648;SDS011;8943;51.110;-4.158;2023-11-22T15:45:26;26.07;;;2.37;;
17648;SDS011;8943;51.110;-4.158;2023-11-22T15:51:05;11.97;;;1.87;;
17648;SDS011;8943;51.110;-4.158;2023-11-22T15:54:03;9.33;;;2.10;;
17648;SDS011;8943;51.110;-4.158;2023-11-22T15:56:35;11.17;;;2.33;;
17648;SDS011;8943;51.110;-4.158;2023-11-22T15:59:03;10.03;;;2.20;;
17648;SDS011;8943;51.110;-4.158;2023-11-22T16:01:36;1.00;;;0.77;;
17648;SDS011;8943;51.110;-4.158;2023-11-22T16:04:08;9.20;;;1.80;;
17648;SDS011;8943;51.110;-4.158;2023-11-22T16:06:40;2.90;;;1.30;;
17648;SDS011;8943;51.110;-4.158;2023-11-22T16:09:09;8.37;;;1.90;;
17648;SDS011;8943;51.110;-4.158;2023-11-22T16:11:39;9.63;;;2.00;;
17648;SDS011;8943;51.110;-4.158;2023-11-22T16:14:14;4.57;;;2.03;;
17648;SDS011;8943;51.110;-4.158;2023-11-22T16:16:54;9.27;;;3.00;;
17648;SDS011;8943;51.110;-4.158;2023-11-22T16:19:25;13.67;;;2.07;;
17648;SDS011;8943;51.110;-4.158;2023-11-22T16:22:25;8.20;;;1.73;;
17648;SDS011;8943;51.110;-4.158;2023-11-22T16:24:54;14.93;;;2.50;;
17648;SDS011;8943;51.110;-4.158;2023-11-22T16:27:28;13.17;;;2.93;;
17648;SDS011;8943;51.110;-4.158;2023-11-22T16:30:35;9.13;;;2.03;;
17648;SDS011;8943;51.110;-4.158;2023-11-22T16:33:15;8.43;;;2.63;;
17648;SDS011;8943;51.110;-4.158;2023-11-22T16:35:51;11.87;;;1.93;;
17648;SDS011;8943;51.110;-4.158;2023-11-22T16:38:34;13.37;;;2.50;;
17648;SDS011;8943;51.110;-4.158;2023-11-22T16:41:23;8.50;;;2.67;;
17648;SDS011;8943;51.110;-4.158;2023-11-22T16:43:52;3.03;;;0.70;;
17648;SDS011;8943;51.110;-4.158;2023-11-22T16:46:24;7.70;;;1.90;;
17648;SDS011;8943;51.110;-4.158;2023-11-22T16:49:16;9.13;;;3.00;;
17648;SDS011;8943;51.110;-4.158;2023-11-22T16:52:03;8.43;;;2.13;;
17648;SDS011;8943;51.110;-4.158;2023-11-22T16:54:36;9.90;;;2.17;;
17648;SDS011;8943;51.110;-4.158;2023-11-22T16:57:06;11.30;;;3.37;;
17648;SDS011;8943;51.110;-4.158;2023-11-22T16:59:38;8.77;;;2.50;;
17648;SDS011;8943;51.110;-4.158;2023-11-22T17:02:23;8.77;;;3.03;;
17648;SDS011;8943;51.110;-4.158;2023-11-22T17:05:00;13.40;;;2.47;;
17648;SDS011;8943;51.110;-4.158;2023-11-22T17:07:32;13.33;;;2.80;;
17648;SDS011;8943;51.110;-4.158;2023-11-22T17:10:19;11.83;;;2.63;;
17648;SDS011;8943;51.110;-4.158;2023-11-22T17:13:12;13.37;;;2.40;;
17648;SDS011;8943;51.110;-4.158;2023-11-22T17:15:42;22.33;;;5.97;;
17648;SDS011;8943;51.110;-4.158;2023-11-22T17:18:14;8.77;;;2.23;;
17648;SDS011;8943;51.110;-4.158;2023-11-22T17:20:46;11.00;;;1.97;;
17648;SDS011;8943;51.110;-4.158;2023-11-22T17:23:29;8.07;;;2.33;;
17648;SDS011;8943;51.110;-4.158;2023-11-22T17:26:30;11.50;;;4.47;;
17648;SDS011;8943;51.110;-4.158;2023-11-22T17:29:25;8.13;;;3.87;;
17648;SDS011;8943;51.110;-4.158;2023-11-22T17:31:56;11.03;;;2.53;;
17648;SDS011;8943;51.110;-4.158;2023-11-22T17:34:35;13.87;;;2.77;;
17648;SDS011;8943;51.110;-4.158;2023-11-22T17:37:21;11.20;;;2.33;;
17648;SDS011;8943;51.110;-4.158;2023-11-22T17:39:50;9.30;;;2.83;;
17648;SDS011;8943;51.110;-4.158;2023-11-22T17:42:20;9.00;;;3.40;;
17648;SDS011;8943;51.110;-4.158;2023-11-22T17:45:00;10.83;;;2.70;;
17648;SDS011;8943;51.110;-4.158;2023-11-22T17:47:29;9.93;;;2.30;;
17648;SDS011;8943;51.110;-4.158;2023-11-22T17:49:59;9.70;;;1.90;;
17648;SDS011;8943;51.110;-4.158;2023-11-22T17:52:32;6.37;;;2.20;;
17648;SDS011;8943;51.110;-4.158;2023-11-22T17:55:01;7.80;;;2.67;;
17648;SDS011;8943;51.110;-4.158;2023-11-22T17:57:32;11.70;;;2.80;;